createdAt,value
2023-04-02T00:05:04.831Z,7.94
2023-04-02T00:25:04.863Z,7.97
2023-04-02T00:45:05.952Z,7.99
2023-04-02T01:05:05.286Z,8.01
2023-04-02T01:25:05.004Z,8.05
2023-04-02T01:45:05.072Z,8.05
2023-04-02T02:05:05.074Z,8.07
2023-04-02T02:25:05.120Z,8.07
2023-04-02T02:45:05.036Z,8.07
2023-04-02T03:05:05.160Z,8.14
2023-04-02T03:25:05.190Z,8.14
2023-04-02T03:45:05.260Z,7.08
2023-04-02T04:05:05.294Z,6.53
2023-04-02T04:25:05.325Z,6.06
2023-04-02T04:45:05.454Z,5.86
2023-04-02T05:05:05.438Z,5.63
2023-04-02T05:25:05.479Z,5.24
2023-04-02T05:45:05.455Z,4.83
2023-04-02T06:05:05.555Z,4.83
2023-04-02T06:25:05.662Z,5.03
2023-04-02T06:45:05.804Z,4.79
2023-04-02T07:05:05.967Z,4.71
2023-04-02T07:25:05.766Z,4.93
2023-04-02T07:45:06.165Z,4.76
2023-04-02T08:05:05.769Z,4.92
2023-04-02T08:25:05.920Z,5.05
2023-04-02T08:45:21.038Z,5.49
2023-04-02T09:05:06.024Z,5.44
2023-04-02T09:25:05.979Z,6.23
2023-04-02T09:45:06.054Z,5.93
2023-04-02T10:05:06.092Z,5.82
2023-04-02T10:25:06.125Z,5.11
2023-04-02T10:45:06.187Z,6.12
2023-04-02T11:05:06.223Z,7.04
2023-04-02T11:25:06.233Z,6.28
2023-04-02T11:45:06.285Z,5.91
2023-04-02T12:05:06.333Z,5.58
2023-04-02T12:25:06.295Z,4.71
2023-04-02T12:45:06.373Z,4.5
2023-04-02T13:05:06.448Z,4.35
2023-04-02T13:25:06.519Z,4
2023-04-02T13:45:06.600Z,5
2023-04-02T14:05:06.691Z,4.45
2023-04-02T14:25:06.711Z,4.66
2023-04-02T14:45:06.770Z,4.51
2023-04-02T15:05:06.725Z,4.45
2023-04-02T15:25:06.753Z,4.37
2023-04-02T15:45:06.799Z,3.98
2023-04-02T16:05:06.900Z,4.07
2023-04-02T16:25:06.986Z,3.7
2023-04-02T16:45:06.975Z,3.95
2023-04-02T17:05:06.900Z,4.01
2023-04-02T17:25:07.087Z,4.01
2023-04-02T17:45:07.086Z,4.04
2023-04-02T18:05:07.052Z,4.05
2023-04-02T18:25:07.169Z,3.9
2023-04-02T18:45:07.243Z,3.5
2023-04-02T19:05:07.212Z,3.37
2023-04-02T19:25:07.229Z,3.45
2023-04-02T19:45:07.940Z,3.24
2023-04-02T20:05:07.376Z,2.88
2023-04-02T20:25:07.420Z,2.58
2023-04-02T21:05:07.595Z,2.2
2023-04-02T21:25:07.559Z,2.11
2023-04-02T21:45:07.632Z,2.15
2023-04-02T22:05:07.647Z,2.23
2023-04-02T22:25:08.141Z,2.38
2023-04-02T22:45:07.783Z,2.54
2023-04-02T23:05:07.877Z,2.72
2023-04-02T23:25:07.847Z,2.88
2023-04-02T23:45:07.862Z,3.04
